sensor_id;sensor_type;location;lat;lon;timestamp;P1;durP1;ratioP1;P2;durP2;ratioP2
64244;SDS011;50584;29.058;-110.966;2023-02-03T00:02:23;0.70;;;0.70;;
64244;SDS011;50584;29.058;-110.966;2023-02-03T00:04:49;0.73;;;0.70;;
64244;SDS011;50584;29.058;-110.966;2023-02-03T00:07:15;2.70;;;0.90;;
64244;SDS011;50584;29.058;-110.966;2023-02-03T00:09:41;2.72;;;1.00;;
64244;SDS011;50584;29.058;-110.966;2023-02-03T00:12:07;4.80;;;1.15;;
64244;SDS011;50584;29.058;-110.966;2023-02-03T00:14:33;2.65;;;0.90;;
64244;SDS011;50584;29.058;-110.966;2023-02-03T00:16:59;2.88;;;1.00;;
64244;SDS011;50584;29.058;-110.966;2023-02-03T00:19:24;1.00;;;1.00;;
64244;SDS011;50584;29.058;-110.966;2023-02-03T00:21:50;2.67;;;1.00;;
64244;SDS011;50584;29.058;-110.966;2023-02-03T00:24:16;2.08;;;1.30;;
64244;SDS011;50584;29.058;-110.966;2023-02-03T00:26:44;1.02;;;1.00;;
64244;SDS011;50584;29.058;-110.966;2023-02-03T00:29:10;3.45;;;1.08;;
64244;SDS011;50584;29.058;-110.966;2023-02-03T00:31:36;1.27;;;0.85;;
64244;SDS011;50584;29.058;-110.966;2023-02-03T00:34:02;2.80;;;1.20;;
64244;SDS011;50584;29.058;-110.966;2023-02-03T00:36:27;5.15;;;0.98;;
64244;SDS011;50584;29.058;-110.966;2023-02-03T00:38:53;1.15;;;1.10;;
64244;SDS011;50584;29.058;-110.966;2023-02-03T00:41:20;2.05;;;0.93;;
64244;SDS011;50584;29.058;-110.966;2023-02-03T00:43:46;2.83;;;1.02;;
64244;SDS011;50584;29.058;-110.966;2023-02-03T00:46:12;1.52;;;1.40;;
64244;SDS011;50584;29.058;-110.966;2023-02-03T00:48:38;1.77;;;1.00;;
64244;SDS011;50584;29.058;-110.966;2023-02-03T00:51:04;3.38;;;1.13;;
64244;SDS011;50584;29.058;-110.966;2023-02-03T00:53:30;6.43;;;1.10;;
64244;SDS011;50584;29.058;-110.966;2023-02-03T00:55:56;3.70;;;1.00;;
64244;SDS011;50584;29.058;-110.966;2023-02-03T00:58:22;2.30;;;1.02;;
64244;SDS011;50584;29.058;-110.966;2023-02-03T01:00:48;4.70;;;1.00;;
64244;SDS011;50584;29.058;-110.966;2023-02-03T01:03:13;3.03;;;1.20;;
64244;SDS011;50584;29.058;-110.966;2023-02-03T01:05:40;0.95;;;0.95;;
64244;SDS011;50584;29.058;-110.966;2023-02-03T01:08:06;5.70;;;1.08;;
64244;SDS011;50584;29.058;-110.966;2023-02-03T01:10:32;2.65;;;1.20;;
64244;SDS011;50584;29.058;-110.966;2023-02-03T01:12:58;4.97;;;1.20;;
64244;SDS011;50584;29.058;-110.966;2023-02-03T01:15:23;2.45;;;1.40;;
64244;SDS011;50584;29.058;-110.966;2023-02-03T01:17:49;5.68;;;2.13;;
64244;SDS011;50584;29.058;-110.966;2023-02-03T01:20:15;10.93;;;1.45;;
64244;SDS011;50584;29.058;-110.966;2023-02-03T01:22:41;4.35;;;1.98;;
64244;SDS011;50584;29.058;-110.966;2023-02-03T01:25:07;2.67;;;1.63;;
64244;SDS011;50584;29.058;-110.966;2023-02-03T01:27:33;4.10;;;1.92;;
64244;SDS011;50584;29.058;-110.966;2023-02-03T01:29:59;2.90;;;1.90;;
64244;SDS011;50584;29.058;-110.966;2023-02-03T01:32:26;2.47;;;1.88;;
64244;SDS011;50584;29.058;-110.966;2023-02-03T01:34:52;2.25;;;1.88;;
64244;SDS011;50584;29.058;-110.966;2023-02-03T01:37:20;7.80;;;1.83;;
64244;SDS011;50584;29.058;-110.966;2023-02-03T01:39:46;2.72;;;1.20;;
64244;SDS011;50584;29.058;-110.966;2023-02-03T01:42:12;6.78;;;1.30;;
64244;SDS011;50584;29.058;-110.966;2023-02-03T01:49:58;1.20;;;1.20;;
64244;SDS011;50584;29.058;-110.966;2023-02-03T01:52:24;3.80;;;1.10;;
64244;SDS011;50584;29.058;-110.966;2023-02-03T01:54:51;1.60;;;1.17;;
64244;SDS011;50584;29.058;-110.966;2023-02-03T01:57:20;5.35;;;1.40;;
64244;SDS011;50584;29.058;-110.966;2023-02-03T01:59:47;2.28;;;1.30;;
64244;SDS011;50584;29.058;-110.966;2023-02-03T02:02:13;3.75;;;1.98;;
64244;SDS011;50584;29.058;-110.966;2023-02-03T02:07:24;8.82;;;2.03;;
64244;SDS011;50584;29.058;-110.966;2023-02-03T02:09:49;4.20;;;2.58;;
64244;SDS011;50584;29.058;-110.966;2023-02-03T02:12:16;5.93;;;2.30;;
64244;SDS011;50584;29.058;-110.966;2023-02-03T02:14:41;7.93;;;2.20;;
64244;SDS011;50584;29.058;-110.966;2023-02-03T02:17:25;13.25;;;2.72;;
64244;SDS011;50584;29.058;-110.966;2023-02-03T02:35:46;1.85;;;1.58;;
64244;SDS011;50584;29.058;-110.966;2023-02-03T02:38:20;2.40;;;1.23;;
64244;SDS011;50584;29.058;-110.966;2023-02-03T02:48:58;1.15;;;1.05;;
64244;SDS011;50584;29.058;-110.966;2023-02-03T02:51:24;1.30;;;1.15;;
64244;SDS011;50584;29.058;-110.966;2023-02-03T02:53:53;1.27;;;1.20;;
64244;SDS011;50584;29.058;-110.966;2023-02-03T02:56:20;10.43;;;1.40;;
64244;SDS011;50584;29.058;-110.966;2023-02-03T02:58:48;12.10;;;1.63;;
64244;SDS011;50584;29.058;-110.966;2023-02-03T03:01:15;6.15;;;1.13;;
64244;SDS011;50584;29.058;-110.966;2023-02-03T03:03:42;3.83;;;1.15;;
64244;SDS011;50584;29.058;-110.966;2023-02-03T03:06:23;5.13;;;1.60;;
64244;SDS011;50584;29.058;-110.966;2023-02-03T03:09:24;2.13;;;1.10;;
64244;SDS011;50584;29.058;-110.966;2023-02-03T03:11:55;4.90;;;1.30;;
64244;SDS011;50584;29.058;-110.966;2023-02-03T03:14:24;4.63;;;1.50;;
64244;SDS011;50584;29.058;-110.966;2023-02-03T03:16:52;6.28;;;1.58;;
64244;SDS011;50584;29.058;-110.966;2023-02-03T03:19:20;1.15;;;1.10;;
64244;SDS011;50584;29.058;-110.966;2023-02-03T03:21:48;3.28;;;1.27;;
64244;SDS011;50584;29.058;-110.966;2023-02-03T03:24:17;15.40;;;2.90;;
64244;SDS011;50584;29.058;-110.966;2023-02-03T03:26:52;22.75;;;4.93;;
64244;SDS011;50584;29.058;-110.966;2023-02-03T03:30:02;28.13;;;3.50;;
64244;SDS011;50584;29.058;-110.966;2023-02-03T03:32:07;18.83;;;3.65;;
64244;SDS011;50584;29.058;-110.966;2023-02-03T03:34:34;19.65;;;3.33;;
64244;SDS011;50584;29.058;-110.966;2023-02-03T03:37:02;17.08;;;3.90;;
64244;SDS011;50584;29.058;-110.966;2023-02-03T03:39:34;15.73;;;3.58;;
64244;SDS011;50584;29.058;-110.966;2023-02-03T03:42:04;32.92;;;3.80;;
64244;SDS011;50584;29.058;-110.966;2023-02-03T03:44:36;18.42;;;4.32;;
64244;SDS011;50584;29.058;-110.966;2023-02-03T03:47:28;20.08;;;4.45;;
64244;SDS011;50584;29.058;-110.966;2023-02-03T03:49:49;13.35;;;3.38;;
64244;SDS011;50584;29.058;-110.966;2023-02-03T03:52:18;20.02;;;5.70;;
64244;SDS011;50584;29.058;-110.966;2023-02-03T03:54:46;26.55;;;7.07;;
64244;SDS011;50584;29.058;-110.966;2023-02-03T03:57:14;30.38;;;7.82;;
64244;SDS011;50584;29.058;-110.966;2023-02-03T03:59:44;31.30;;;8.73;;
64244;SDS011;50584;29.058;-110.966;2023-02-03T04:02:11;20.92;;;6.05;;
64244;SDS011;50584;29.058;-110.966;2023-02-03T04:04:38;8.93;;;3.50;;
64244;SDS011;50584;29.058;-110.966;2023-02-03T04:07:04;17.67;;;3.72;;
64244;SDS011;50584;29.058;-110.966;2023-02-03T04:09:30;14.18;;;3.55;;
64244;SDS011;50584;29.058;-110.966;2023-02-03T04:11:56;21.83;;;3.58;;
64244;SDS011;50584;29.058;-110.966;2023-02-03T04:14:28;14.10;;;4.50;;
64244;SDS011;50584;29.058;-110.966;2023-02-03T04:16:57;24.50;;;5.35;;
64244;SDS011;50584;29.058;-110.966;2023-02-03T04:19:22;18.25;;;5.30;;
64244;SDS011;50584;29.058;-110.966;2023-02-03T04:21:48;26.73;;;4.72;;
64244;SDS011;50584;29.058;-110.966;2023-02-03T04:24:14;27.00;;;4.25;;
64244;SDS011;50584;29.058;-110.966;2023-02-03T04:26:40;20.38;;;4.78;;
64244;SDS011;50584;29.058;-110.966;2023-02-03T04:29:05;27.00;;;4.13;;
64244;SDS011;50584;29.058;-110.966;2023-02-03T04:31:32;17.40;;;4.80;;
64244;SDS011;50584;29.058;-110.966;2023-02-03T04:33:57;25.05;;;4.90;;
64244;SDS011;50584;29.058;-110.966;2023-02-03T04:36:23;28.67;;;4.53;;
64244;SDS011;50584;29.058;-110.966;2023-02-03T04:38:49;11.25;;;3.58;;
64244;SDS011;50584;29.058;-110.966;2023-02-03T04:41:15;16.77;;;4.18;;
64244;SDS011;50584;29.058;-110.966;2023-02-03T04:43:41;27.42;;;4.20;;
64244;SDS011;50584;29.058;-110.966;2023-02-03T04:46:07;12.05;;;4.00;;
64244;SDS011;50584;29.058;-110.966;2023-02-03T04:48:33;27.58;;;4.38;;
64244;SDS011;50584;29.058;-110.966;2023-02-03T04:51:02;26.80;;;6.00;;
64244;SDS011;50584;29.058;-110.966;2023-02-03T04:53:29;49.25;;;7.10;;
64244;SDS011;50584;29.058;-110.966;2023-02-03T04:55:55;35.15;;;6.18;;
64244;SDS011;50584;29.058;-110.966;2023-02-03T04:58:20;37.13;;;5.90;;
64244;SDS011;50584;29.058;-110.966;2023-02-03T05:00:46;39.83;;;6.43;;
64244;SDS011;50584;29.058;-110.966;2023-02-03T05:03:12;26.25;;;5.07;;
64244;SDS011;50584;29.058;-110.966;2023-02-03T05:05:38;32.30;;;5.25;;
64244;SDS011;50584;29.058;-110.966;2023-02-03T05:08:04;15.13;;;4.55;;
64244;SDS011;50584;29.058;-110.966;2023-02-03T05:10:29;20.52;;;3.20;;
64244;SDS011;50584;29.058;-110.966;2023-02-03T05:12:55;9.77;;;2.83;;
64244;SDS011;50584;29.058;-110.966;2023-02-03T05:15:21;6.38;;;3.13;;
64244;SDS011;50584;29.058;-110.966;2023-02-03T05:17:47;7.38;;;3.03;;
64244;SDS011;50584;29.058;-110.966;2023-02-03T05:20:13;13.98;;;2.97;;
64244;SDS011;50584;29.058;-110.966;2023-02-03T05:22:38;4.13;;;2.95;;
64244;SDS011;50584;29.058;-110.966;2023-02-03T05:25:04;9.20;;;3.65;;
64244;SDS011;50584;29.058;-110.966;2023-02-03T05:27:30;15.15;;;3.05;;
64244;SDS011;50584;29.058;-110.966;2023-02-03T05:29:56;6.72;;;3.00;;
64244;SDS011;50584;29.058;-110.966;2023-02-03T05:32:22;3.83;;;3.20;;
64244;SDS011;50584;29.058;-110.966;2023-02-03T05:34:47;7.75;;;2.92;;
64244;SDS011;50584;29.058;-110.966;2023-02-03T05:37:13;6.72;;;2.65;;
64244;SDS011;50584;29.058;-110.966;2023-02-03T05:39:39;7.30;;;2.88;;
64244;SDS011;50584;29.058;-110.966;2023-02-03T05:42:05;15.90;;;3.00;;
64244;SDS011;50584;29.058;-110.966;2023-02-03T05:44:30;16.10;;;3.50;;
64244;SDS011;50584;29.058;-110.966;2023-02-03T05:46:57;6.55;;;2.97;;
64244;SDS011;50584;29.058;-110.966;2023-02-03T05:49:22;17.55;;;4.63;;
64244;SDS011;50584;29.058;-110.966;2023-02-03T05:51:49;9.27;;;3.67;;
64244;SDS011;50584;29.058;-110.966;2023-02-03T05:54:15;13.98;;;3.58;;
64244;SDS011;50584;29.058;-110.966;2023-02-03T05:56:41;14.52;;;3.50;;
64244;SDS011;50584;29.058;-110.966;2023-02-03T05:59:07;11.13;;;3.83;;
64244;SDS011;50584;29.058;-110.966;2023-02-03T06:01:33;11.35;;;3.60;;
64244;SDS011;50584;29.058;-110.966;2023-02-03T06:03:59;11.52;;;3.67;;
64244;SDS011;50584;29.058;-110.966;2023-02-03T06:06:24;10.73;;;3.95;;
64244;SDS011;50584;29.058;-110.966;2023-02-03T06:08:57;20.15;;;3.92;;
64244;SDS011;50584;29.058;-110.966;2023-02-03T06:11:23;7.07;;;3.60;;
64244;SDS011;50584;29.058;-110.966;2023-02-03T06:13:49;15.90;;;4.22;;
64244;SDS011;50584;29.058;-110.966;2023-02-03T06:16:15;5.65;;;3.50;;
64244;SDS011;50584;29.058;-110.966;2023-02-03T06:18:41;12.63;;;3.38;;
64244;SDS011;50584;29.058;-110.966;2023-02-03T06:21:07;11.77;;;3.80;;
64244;SDS011;50584;29.058;-110.966;2023-02-03T06:23:33;10.13;;;4.28;;
64244;SDS011;50584;29.058;-110.966;2023-02-03T06:25:58;16.90;;;4.75;;
64244;SDS011;50584;29.058;-110.966;2023-02-03T06:28:24;14.73;;;3.80;;
64244;SDS011;50584;29.058;-110.966;2023-02-03T06:30:51;12.45;;;3.63;;
64244;SDS011;50584;29.058;-110.966;2023-02-03T06:33:17;6.70;;;2.92;;
64244;SDS011;50584;29.058;-110.966;2023-02-03T06:35:43;6.72;;;3.15;;
64244;SDS011;50584;29.058;-110.966;2023-02-03T06:38:09;11.55;;;3.13;;
64244;SDS011;50584;29.058;-110.966;2023-02-03T06:40:35;8.07;;;2.95;;
64244;SDS011;50584;29.058;-110.966;2023-02-03T06:43:01;17.27;;;3.70;;
64244;SDS011;50584;29.058;-110.966;2023-02-03T06:45:27;13.73;;;3.75;;
64244;SDS011;50584;29.058;-110.966;2023-02-03T06:47:53;22.27;;;4.75;;
64244;SDS011;50584;29.058;-110.966;2023-02-03T06:50:18;17.80;;;4.32;;
64244;SDS011;50584;29.058;-110.966;2023-02-03T06:52:45;19.83;;;4.00;;
64244;SDS011;50584;29.058;-110.966;2023-02-03T06:55:10;13.77;;;4.10;;
64244;SDS011;50584;29.058;-110.966;2023-02-03T06:57:41;16.67;;;3.75;;
64244;SDS011;50584;29.058;-110.966;2023-02-03T07:00:08;4.97;;;3.55;;
64244;SDS011;50584;29.058;-110.966;2023-02-03T07:02:33;10.10;;;4.35;;
64244;SDS011;50584;29.058;-110.966;2023-02-03T07:04:59;7.70;;;3.85;;
64244;SDS011;50584;29.058;-110.966;2023-02-03T07:07:25;10.75;;;3.83;;
64244;SDS011;50584;29.058;-110.966;2023-02-03T07:09:51;7.90;;;3.10;;
64244;SDS011;50584;29.058;-110.966;2023-02-03T07:12:17;9.60;;;3.10;;
64244;SDS011;50584;29.058;-110.966;2023-02-03T07:14:42;11.63;;;3.08;;
64244;SDS011;50584;29.058;-110.966;2023-02-03T07:17:08;7.88;;;3.03;;
64244;SDS011;50584;29.058;-110.966;2023-02-03T07:19:34;6.57;;;3.05;;
64244;SDS011;50584;29.058;-110.966;2023-02-03T07:22:00;9.30;;;3.10;;
64244;SDS011;50584;29.058;-110.966;2023-02-03T07:24:25;3.30;;;2.15;;
64244;SDS011;50584;29.058;-110.966;2023-02-03T07:26:51;6.35;;;2.35;;
64244;SDS011;50584;29.058;-110.966;2023-02-03T07:29:18;3.00;;;2.25;;
64244;SDS011;50584;29.058;-110.966;2023-02-03T07:31:43;12.95;;;2.53;;
64244;SDS011;50584;29.058;-110.966;2023-02-03T07:34:09;7.47;;;2.05;;
64244;SDS011;50584;29.058;-110.966;2023-02-03T07:36:35;2.15;;;2.05;;
64244;SDS011;50584;29.058;-110.966;2023-02-03T07:39:01;3.35;;;2.30;;
64244;SDS011;50584;29.058;-110.966;2023-02-03T07:41:26;9.50;;;2.83;;
64244;SDS011;50584;29.058;-110.966;2023-02-03T07:43:52;2.75;;;2.55;;
64244;SDS011;50584;29.058;-110.966;2023-02-03T07:46:18;4.30;;;2.08;;
64244;SDS011;50584;29.058;-110.966;2023-02-03T07:48:44;9.23;;;2.85;;
64244;SDS011;50584;29.058;-110.966;2023-02-03T07:51:09;2.70;;;2.50;;
64244;SDS011;50584;29.058;-110.966;2023-02-03T07:53:35;5.32;;;2.30;;
64244;SDS011;50584;29.058;-110.966;2023-02-03T07:56:02;8.15;;;2.75;;
64244;SDS011;50584;29.058;-110.966;2023-02-03T07:58:28;4.63;;;2.40;;
64244;SDS011;50584;29.058;-110.966;2023-02-03T08:00:54;7.18;;;2.60;;
64244;SDS011;50584;29.058;-110.966;2023-02-03T08:03:20;3.65;;;2.70;;
64244;SDS011;50584;29.058;-110.966;2023-02-03T08:05:46;8.52;;;2.55;;
64244;SDS011;50584;29.058;-110.966;2023-02-03T08:08:11;5.60;;;2.65;;
64244;SDS011;50584;29.058;-110.966;2023-02-03T08:10:37;4.47;;;2.63;;
64244;SDS011;50584;29.058;-110.966;2023-02-03T08:13:03;3.55;;;2.90;;
64244;SDS011;50584;29.058;-110.966;2023-02-03T08:15:29;2.13;;;2.03;;
64244;SDS011;50584;29.058;-110.966;2023-02-03T08:17:54;3.38;;;2.45;;
64244;SDS011;50584;29.058;-110.966;2023-02-03T08:20:20;4.45;;;2.40;;
64244;SDS011;50584;29.058;-110.966;2023-02-03T08:22:46;4.43;;;2.00;;
64244;SDS011;50584;29.058;-110.966;2023-02-03T08:25:12;2.05;;;1.88;;
64244;SDS011;50584;29.058;-110.966;2023-02-03T08:27:38;1.90;;;1.80;;
64244;SDS011;50584;29.058;-110.966;2023-02-03T08:30:04;4.53;;;1.50;;
64244;SDS011;50584;29.058;-110.966;2023-02-03T08:32:31;2.42;;;2.22;;
64244;SDS011;50584;29.058;-110.966;2023-02-03T08:34:57;3.20;;;1.80;;
64244;SDS011;50584;29.058;-110.966;2023-02-03T08:37:23;3.85;;;1.75;;
64244;SDS011;50584;29.058;-110.966;2023-02-03T08:39:49;3.95;;;1.60;;
64244;SDS011;50584;29.058;-110.966;2023-02-03T08:42:15;7.88;;;2.00;;
64244;SDS011;50584;29.058;-110.966;2023-02-03T08:44:41;4.00;;;1.95;;
64244;SDS011;50584;29.058;-110.966;2023-02-03T08:47:08;1.70;;;1.60;;
64244;SDS011;50584;29.058;-110.966;2023-02-03T08:49:34;1.85;;;1.58;;
64244;SDS011;50584;29.058;-110.966;2023-02-03T08:52:00;3.10;;;1.40;;
64244;SDS011;50584;29.058;-110.966;2023-02-03T08:54:26;2.65;;;1.25;;
64244;SDS011;50584;29.058;-110.966;2023-02-03T08:56:52;1.98;;;1.67;;
64244;SDS011;50584;29.058;-110.966;2023-02-03T08:59:18;2.50;;;1.30;;
64244;SDS011;50584;29.058;-110.966;2023-02-03T09:01:44;8.02;;;1.23;;
64244;SDS011;50584;29.058;-110.966;2023-02-03T09:04:13;1.33;;;1.20;;
64244;SDS011;50584;29.058;-110.966;2023-02-03T09:06:39;3.47;;;1.23;;
64244;SDS011;50584;29.058;-110.966;2023-02-03T09:09:05;1.10;;;1.10;;
64244;SDS011;50584;29.058;-110.966;2023-02-03T09:11:31;2.30;;;1.05;;
64244;SDS011;50584;29.058;-110.966;2023-02-03T09:13:56;4.45;;;1.25;;
64244;SDS011;50584;29.058;-110.966;2023-02-03T09:16:22;1.50;;;1.40;;
64244;SDS011;50584;29.058;-110.966;2023-02-03T09:18:48;1.30;;;1.10;;
64244;SDS011;50584;29.058;-110.966;2023-02-03T09:21:14;1.00;;;1.00;;
64244;SDS011;50584;29.058;-110.966;2023-02-03T09:23:41;1.08;;;1.08;;
64244;SDS011;50584;29.058;-110.966;2023-02-03T09:26:07;1.85;;;1.10;;
64244;SDS011;50584;29.058;-110.966;2023-02-03T09:28:34;1.00;;;1.00;;
64244;SDS011;50584;29.058;-110.966;2023-02-03T09:31:00;1.75;;;1.13;;
64244;SDS011;50584;29.058;-110.966;2023-02-03T09:33:26;1.20;;;1.10;;
64244;SDS011;50584;29.058;-110.966;2023-02-03T09:35:53;4.03;;;1.20;;
64244;SDS011;50584;29.058;-110.966;2023-02-03T09:38:19;2.25;;;1.30;;
64244;SDS011;50584;29.058;-110.966;2023-02-03T09:40:45;1.95;;;1.33;;
64244;SDS011;50584;29.058;-110.966;2023-02-03T09:43:22;1.00;;;1.00;;
64244;SDS011;50584;29.058;-110.966;2023-02-03T09:45:53;1.20;;;1.20;;
64244;SDS011;50584;29.058;-110.966;2023-02-03T09:48:25;1.92;;;1.38;;
64244;SDS011;50584;29.058;-110.966;2023-02-03T09:50:52;1.33;;;1.30;;
64244;SDS011;50584;29.058;-110.966;2023-02-03T09:53:29;2.75;;;1.30;;
64244;SDS011;50584;29.058;-110.966;2023-02-03T09:55:57;1.58;;;1.45;;
64244;SDS011;50584;29.058;-110.966;2023-02-03T09:58:24;1.60;;;1.50;;
64244;SDS011;50584;29.058;-110.966;2023-02-03T10:00:52;1.48;;;1.38;;
64244;SDS011;50584;29.058;-110.966;2023-02-03T10:06:01;4.65;;;1.20;;
64244;SDS011;50584;29.058;-110.966;2023-02-03T10:08:42;1.70;;;1.60;;
64244;SDS011;50584;29.058;-110.966;2023-02-03T10:19:08;5.35;;;1.60;;
64244;SDS011;50584;29.058;-110.966;2023-02-03T10:21:36;2.05;;;1.42;;
64244;SDS011;50584;29.058;-110.966;2023-02-03T10:24:05;1.30;;;1.20;;
64244;SDS011;50584;29.058;-110.966;2023-02-03T10:26:33;1.35;;;1.30;;
64244;SDS011;50584;29.058;-110.966;2023-02-03T10:29:05;1.58;;;1.30;;
64244;SDS011;50584;29.058;-110.966;2023-02-03T10:31:33;3.60;;;1.20;;
64244;SDS011;50584;29.058;-110.966;2023-02-03T10:34:00;3.15;;;1.27;;
64244;SDS011;50584;29.058;-110.966;2023-02-03T10:39:18;1.60;;;1.50;;
64244;SDS011;50584;29.058;-110.966;2023-02-03T10:41:45;1.52;;;1.45;;
64244;SDS011;50584;29.058;-110.966;2023-02-03T10:44:12;3.38;;;1.70;;
64244;SDS011;50584;29.058;-110.966;2023-02-03T10:46:38;3.70;;;1.90;;
64244;SDS011;50584;29.058;-110.966;2023-02-03T10:49:06;3.80;;;1.90;;
64244;SDS011;50584;29.058;-110.966;2023-02-03T10:54:04;3.70;;;1.50;;
64244;SDS011;50584;29.058;-110.966;2023-02-03T10:56:50;1.20;;;1.20;;
64244;SDS011;50584;29.058;-110.966;2023-02-03T10:59:26;1.75;;;1.65;;
64244;SDS011;50584;29.058;-110.966;2023-02-03T11:01:52;4.50;;;1.50;;
64244;SDS011;50584;29.058;-110.966;2023-02-03T11:04:25;1.50;;;1.40;;
64244;SDS011;50584;29.058;-110.966;2023-02-03T11:06:55;3.30;;;1.38;;
64244;SDS011;50584;29.058;-110.966;2023-02-03T11:09:30;1.52;;;1.13;;
64244;SDS011;50584;29.058;-110.966;2023-02-03T11:14:51;4.80;;;1.30;;
64244;SDS011;50584;29.058;-110.966;2023-02-03T11:17:18;2.00;;;1.50;;
64244;SDS011;50584;29.058;-110.966;2023-02-03T11:19:47;1.55;;;1.45;;
64244;SDS011;50584;29.058;-110.966;2023-02-03T11:22:25;6.82;;;1.50;;
64244;SDS011;50584;29.058;-110.966;2023-02-03T11:24:51;5.65;;;1.60;;
64244;SDS011;50584;29.058;-110.966;2023-02-03T11:27:17;1.30;;;1.20;;
64244;SDS011;50584;29.058;-110.966;2023-02-03T11:29:48;6.18;;;1.30;;
64244;SDS011;50584;29.058;-110.966;2023-02-03T11:32:28;4.95;;;1.35;;
64244;SDS011;50584;29.058;-110.966;2023-02-03T11:34:59;3.67;;;1.50;;
64244;SDS011;50584;29.058;-110.966;2023-02-03T11:37:26;1.35;;;1.20;;
64244;SDS011;50584;29.058;-110.966;2023-02-03T11:40:35;3.17;;;1.73;;
64244;SDS011;50584;29.058;-110.966;2023-02-03T11:47:50;2.53;;;2.20;;
64244;SDS011;50584;29.058;-110.966;2023-02-03T11:52:49;3.42;;;1.77;;
64244;SDS011;50584;29.058;-110.966;2023-02-03T11:55:25;2.58;;;1.70;;
64244;SDS011;50584;29.058;-110.966;2023-02-03T12:00:44;1.00;;;1.00;;
64244;SDS011;50584;29.058;-110.966;2023-02-03T12:08:44;3.13;;;1.45;;
64244;SDS011;50584;29.058;-110.966;2023-02-03T12:11:17;7.97;;;2.08;;
64244;SDS011;50584;29.058;-110.966;2023-02-03T12:13:56;2.22;;;1.95;;
64244;SDS011;50584;29.058;-110.966;2023-02-03T12:16:48;3.28;;;1.35;;
64244;SDS011;50584;29.058;-110.966;2023-02-03T12:26:49;3.42;;;1.60;;
64244;SDS011;50584;29.058;-110.966;2023-02-03T12:29:24;2.40;;;1.55;;
64244;SDS011;50584;29.058;-110.966;2023-02-03T12:32:02;5.03;;;2.03;;
64244;SDS011;50584;29.058;-110.966;2023-02-03T12:34:37;5.93;;;2.67;;
64244;SDS011;50584;29.058;-110.966;2023-02-03T12:42:46;5.15;;;2.00;;
64244;SDS011;50584;29.058;-110.966;2023-02-03T12:47:17;4.40;;;1.52;;
64244;SDS011;50584;29.058;-110.966;2023-02-03T12:49:46;1.50;;;1.38;;
64244;SDS011;50584;29.058;-110.966;2023-02-03T12:52:16;1.45;;;1.40;;
64244;SDS011;50584;29.058;-110.966;2023-02-03T13:00:04;5.68;;;1.50;;
64244;SDS011;50584;29.058;-110.966;2023-02-03T13:02:37;3.92;;;1.42;;
64244;SDS011;50584;29.058;-110.966;2023-02-03T13:05:12;4.10;;;1.60;;
64244;SDS011;50584;29.058;-110.966;2023-02-03T13:07:52;1.60;;;1.50;;
64244;SDS011;50584;29.058;-110.966;2023-02-03T13:10:22;1.33;;;1.33;;
64244;SDS011;50584;29.058;-110.966;2023-02-03T13:12:51;1.45;;;1.30;;
64244;SDS011;50584;29.058;-110.966;2023-02-03T13:15:21;1.30;;;1.30;;
64244;SDS011;50584;29.058;-110.966;2023-02-03T13:17:51;3.03;;;1.35;;
64244;SDS011;50584;29.058;-110.966;2023-02-03T13:20:21;0.90;;;0.90;;
64244;SDS011;50584;29.058;-110.966;2023-02-03T13:22:47;4.68;;;1.23;;
64244;SDS011;50584;29.058;-110.966;2023-02-03T13:41:25;7.78;;;1.90;;
64244;SDS011;50584;29.058;-110.966;2023-02-03T13:43:48;7.80;;;2.55;;
64244;SDS011;50584;29.058;-110.966;2023-02-03T13:46:19;1.65;;;1.55;;
64244;SDS011;50584;29.058;-110.966;2023-02-03T13:48:46;6.47;;;2.78;;
64244;SDS011;50584;29.058;-110.966;2023-02-03T13:53:38;15.02;;;3.17;;
64244;SDS011;50584;29.058;-110.966;2023-02-03T13:56:14;3.40;;;3.10;;
64244;SDS011;50584;29.058;-110.966;2023-02-03T13:58:42;9.02;;;4.15;;
64244;SDS011;50584;29.058;-110.966;2023-02-03T14:01:39;9.88;;;5.75;;
64244;SDS011;50584;29.058;-110.966;2023-02-03T14:11:48;2.63;;;2.42;;
64244;SDS011;50584;29.058;-110.966;2023-02-03T14:16:48;8.80;;;4.80;;
64244;SDS011;50584;29.058;-110.966;2023-02-03T14:24:21;17.38;;;5.13;;
64244;SDS011;50584;29.058;-110.966;2023-02-03T14:26:51;25.20;;;9.05;;
64244;SDS011;50584;29.058;-110.966;2023-02-03T14:29:28;5.30;;;2.70;;
64244;SDS011;50584;29.058;-110.966;2023-02-03T14:32:15;18.08;;;8.50;;
64244;SDS011;50584;29.058;-110.966;2023-02-03T14:34:41;2.17;;;1.80;;
64244;SDS011;50584;29.058;-110.966;2023-02-03T14:58:17;13.40;;;2.70;;
64244;SDS011;50584;29.058;-110.966;2023-02-03T15:00:45;11.25;;;3.67;;
64244;SDS011;50584;29.058;-110.966;2023-02-03T15:08:04;12.07;;;6.30;;
64244;SDS011;50584;29.058;-110.966;2023-02-03T15:10:49;25.83;;;4.80;;
64244;SDS011;50584;29.058;-110.966;2023-02-03T15:13:25;16.88;;;3.53;;
64244;SDS011;50584;29.058;-110.966;2023-02-03T15:15:59;9.98;;;3.60;;
64244;SDS011;50584;29.058;-110.966;2023-02-03T15:18:35;12.85;;;3.60;;
64244;SDS011;50584;29.058;-110.966;2023-02-03T15:21:02;7.18;;;3.10;;
64244;SDS011;50584;29.058;-110.966;2023-02-03T15:23:29;11.35;;;3.35;;
64244;SDS011;50584;29.058;-110.966;2023-02-03T15:25:56;6.45;;;2.72;;
64244;SDS011;50584;29.058;-110.966;2023-02-03T15:28:22;7.70;;;2.55;;
64244;SDS011;50584;29.058;-110.966;2023-02-03T15:30:51;7.07;;;2.28;;
64244;SDS011;50584;29.058;-110.966;2023-02-03T15:33:17;7.88;;;2.20;;
64244;SDS011;50584;29.058;-110.966;2023-02-03T15:35:46;10.18;;;2.70;;
64244;SDS011;50584;29.058;-110.966;2023-02-03T15:38:24;20.75;;;2.58;;
64244;SDS011;50584;29.058;-110.966;2023-02-03T15:40:54;5.72;;;2.50;;
64244;SDS011;50584;29.058;-110.966;2023-02-03T15:43:24;16.80;;;2.05;;
64244;SDS011;50584;29.058;-110.966;2023-02-03T15:46:05;6.82;;;2.03;;
64244;SDS011;50584;29.058;-110.966;2023-02-03T15:48:34;9.57;;;2.75;;
64244;SDS011;50584;29.058;-110.966;2023-02-03T15:53:37;3.60;;;1.90;;
64244;SDS011;50584;29.058;-110.966;2023-02-03T15:56:10;6.55;;;2.40;;
64244;SDS011;50584;29.058;-110.966;2023-02-03T15:58:46;19.00;;;3.00;;
64244;SDS011;50584;29.058;-110.966;2023-02-03T16:01:12;9.90;;;2.42;;
64244;SDS011;50584;29.058;-110.966;2023-02-03T16:03:44;9.70;;;2.10;;
64244;SDS011;50584;29.058;-110.966;2023-02-03T16:08:52;8.35;;;4.38;;
64244;SDS011;50584;29.058;-110.966;2023-02-03T16:13:50;9.35;;;1.83;;
64244;SDS011;50584;29.058;-110.966;2023-02-03T16:18:48;5.00;;;1.92;;
64244;SDS011;50584;29.058;-110.966;2023-02-03T16:21:25;10.20;;;1.88;;
64244;SDS011;50584;29.058;-110.966;2023-02-03T16:23:51;10.57;;;1.65;;
64244;SDS011;50584;29.058;-110.966;2023-02-03T16:26:18;5.25;;;1.33;;
64244;SDS011;50584;29.058;-110.966;2023-02-03T16:31:47;2.60;;;1.42;;
64244;SDS011;50584;29.058;-110.966;2023-02-03T16:34:32;5.03;;;1.40;;
64244;SDS011;50584;29.058;-110.966;2023-02-03T16:37:21;4.18;;;1.40;;
64244;SDS011;50584;29.058;-110.966;2023-02-03T16:40:06;7.25;;;2.00;;
64244;SDS011;50584;29.058;-110.966;2023-02-03T16:42:50;8.02;;;2.15;;
64244;SDS011;50584;29.058;-110.966;2023-02-03T16:45:34;5.93;;;1.75;;
64244;SDS011;50584;29.058;-110.966;2023-02-03T16:48:18;1.73;;;1.63;;
64244;SDS011;50584;29.058;-110.966;2023-02-03T16:51:03;1.63;;;1.58;;
64244;SDS011;50584;29.058;-110.966;2023-02-03T16:53:30;3.05;;;1.45;;
64244;SDS011;50584;29.058;-110.966;2023-02-03T16:55:57;9.35;;;1.63;;